Holden Beach, NC

5:39 PM EDT on April 19, 2015 (GMT -0400)
Winding River Plantation | | Change Station
CLOSE
Current Station
Personal Weather Station
Location: Bolivia, NC
Elevation: 16 ft
Nearby Weather Stations

Elev 16 ft 33.98 °N, 78.25 °W | Updated 11 minutes ago

Overcast
Overcast
71.6 °F
Feels Like 70 °F
N
3.8
Wind Variable Wind from SE

Today
High -- | Low -- °F
--% Chance of Precip.
Yesterday
High -- | Low -- °F
Precip. -- in
6:37 AM 7:47 PM
New Moon, 2% visible
Pressure 29.90 in
Visibility 10.0 miles
Clouds Mostly Cloudy 1700 ft
Overcast 7000 ft
Heat Index 70 °F
Dew Point 67 °F
Humidity 86%
Rainfall 0.04 in
Snow Depth Not available.
UV 1 out of 12
Pollen 6.40 out of 12
Air Quality Not available.
Flu Activity Sporadic
METAR KSUT 192115Z AUTO 14008KT 10SM BKN017 OVC070 21/19 A2990 RMK AO2 T02050193

More Conditions Fewer Conditions

Pressure 29.90 in
Visibility 10.0 miles
Clouds Mostly Cloudy 1700 ft
Overcast 7000 ft
Heat Index 70 °F
Dew Point 67 °F
Humidity 86%
Rainfall 0.04 in
Snow Depth Not available.
UV 1 out of 12
Pollen 6.40 out of 12
Air Quality Not available.
Flu Activity Sporadic
METAR KSUT 192115Z AUTO 14008KT 10SM BKN017 OVC070 21/19 A2990 RMK AO2 T02050193

More Conditions Fewer Conditions

10-Day Weather Forecast

Almanac

Astronomy

Apr. 19, 2015 Rise Set
Actual Time
Civil Twilight
Nautical Twilight
Astronomical Twilight
Moon
Length of Visible Light
Length of Day
Tomorrow will be .
, % of the Moon is Illuminated

Today's Extremes

State Highs State Lows

Community

WunderPhotos

Upload Photos

1,814,993 photos uploaded!

WunderBlogs® & News

Nearby

Air Quality

  Air Quality AQ Index Pollutant
Not available.

Snow Depth

Station Depth Elevation

Earthquake Activity

City Distance Mag. Time & Date
Minimum magnitude displayed is 2.5.

Coastal Water Temperatures

Place Temperature

Stations

Nearby Weather Stations

Station Location Temp. Windchill Dew Point Humidity Wind Precip. Elev Updated Type